Time;durP1;ratioP1;P1;durP2;ratioP2;P2;SDS_P1;SDS_P2;PMS_P1;PMS_P2;Temp;Humidity;BMP_temperature;BMP_pressure;BME280_temperature;BME280_humidity;BME280_pressure;Samples;Min_cycle;Max_cycle;Signal;HPM_P1;HPM_P2
2021/05/28 00:01:33;;;;;;;;;;;;;;;16.21;100.00;99338.78;3483227;28;20026;-49
2021/05/28 00:03:14;;;;;;;;;;;;;;;16.21;100.00;99335.31;3483306;28;19929;-50
2021/05/28 00:04:55;;;;;;;;;;;;;;;16.20;100.00;99342.31;3483778;28;19929;-49
2021/05/28 00:06:36;;;;;;;;;;;;;;;16.20;100.00;99336.22;3482428;28;20019;-44
2021/05/28 00:08:17;;;;;;;;;;;;;;;16.19;100.00;99332.72;3483927;28;19935;-44
2021/05/28 00:09:59;;;;;;;;;;;;;;;16.19;100.00;99331.84;3482653;28;19933;-43
2021/05/28 00:11:41;;;;;;;;;;;;;;;16.17;100.00;99332.72;3483665;28;19928;-50
2021/05/28 00:13:22;;;;;;;;;;;;;;;16.17;100.00;99335.34;3481484;28;20427;-49
2021/05/28 00:15:04;;;;;;;;;;;;;;;16.17;100.00;99331.88;3482761;28;20000;-51
2021/05/28 00:16:45;;;;;;;;;;;;;;;16.15;100.00;99328.41;3483610;28;19968;-50
2021/05/28 00:18:26;;;;;;;;;;;;;;;16.15;100.00;99331.03;3482990;28;20043;-43
2021/05/28 00:20:09;;;;;;;;;;;;;;;16.14;100.00;99338.03;3483753;28;20412;-44
2021/05/28 00:21:50;;;;;;;;;;;;;;;16.14;100.00;99334.53;3482614;28;19932;-44
2021/05/28 00:23:31;;;;;;;;;;;;;;;16.14;100.00;99334.53;3483255;28;20380;-44
2021/05/28 00:25:13;;;;;;;;;;;;;;;16.12;100.00;99331.97;3483254;28;19929;-44
2021/05/28 00:26:54;;;;;;;;;;;;;;;16.11;100.00;99324.13;3482809;28;20364;-44
2021/05/28 00:28:35;;;;;;;;;;;;;;;16.10;100.00;99327.63;3481755;28;19928;-44
2021/05/28 00:30:17;;;;;;;;;;;;;;;16.10;100.00;99322.38;3482374;28;19972;-44
2021/05/28 00:31:58;;;;;;;;;;;;;;;16.07;100.00;99325.94;3483626;28;19935;-44
2021/05/28 00:33:39;;;;;;;;;;;;;;;16.06;100.00;99324.19;3482380;28;20369;-44
2021/05/28 00:35:20;;;;;;;;;;;;;;;16.06;100.00;99326.78;3483583;28;19980;-44
2021/05/28 00:37:01;;;;;;;;;;;;;;;16.07;100.00;99325.94;3482486;28;20344;-44
2021/05/28 00:38:42;;;;;;;;;;;;;;;16.06;100.00;99325.94;3482659;28;19971;-44
2021/05/28 00:40:25;;;;;;;;;;;;;;;16.06;100.00;99318.94;3483086;28;19929;-44
2021/05/28 00:42:06;;;;;;;;;;;;;;;16.06;100.00;99315.47;3482221;28;19976;-44
2021/05/28 00:43:47;;;;;;;;;;;;;;;16.05;100.00;99314.59;3483622;28;19994;-43
2021/05/28 00:45:29;;;;;;;;;;;;;;;16.05;100.00;99311.97;3482410;28;19975;-44
2021/05/28 00:47:10;;;;;;;;;;;;;;;16.06;100.00;99315.47;3483489;28;19974;-43
2021/05/28 00:48:52;;;;;;;;;;;;;;;16.06;100.00;99313.72;3482428;28;19963;-44
2021/05/28 00:50:33;;;;;;;;;;;;;;;16.06;100.00;99311.09;3482750;28;19932;-44
2021/05/28 00:52:15;;;;;;;;;;;;;;;16.06;100.00;99311.09;3483283;28;19928;-49
2021/05/28 00:53:56;;;;;;;;;;;;;;;16.06;100.00;99297.16;3482249;28;20083;-49
2021/05/28 00:55:38;;;;;;;;;;;;;;;16.05;100.00;99296.28;3483259;28;19979;-50
2021/05/28 00:57:20;;;;;;;;;;;;;;;16.05;100.00;99300.66;3482299;28;19972;-50
2021/05/28 00:59:02;;;;;;;;;;;;;;;16.05;100.00;99305.88;3483422;28;20333;-50
2021/05/28 01:00:44;;;;;;;;;;;;;;;16.05;100.00;99301.50;3482438;28;19983;-49
2021/05/28 01:02:26;;;;;;;;;;;;;;;16.04;100.00;99307.66;3482580;28;19987;-49
2021/05/28 01:04:07;;;;;;;;;;;;;;;16.04;100.00;99307.66;3482969;28;20054;-50
2021/05/28 01:05:48;;;;;;;;;;;;;;;16.04;100.00;99306.78;3482214;28;19960;-50
2021/05/28 01:07:29;;;;;;;;;;;;;;;16.04;100.00;99312.88;3483211;28;19991;-50
2021/05/28 01:09:10;;;;;;;;;;;;;;;16.03;100.00;99312.91;3482423;28;19979;-44
2021/05/28 01:10:52;;;;;;;;;;;;;;;16.01;100.00;99320.75;3483546;28;19976;-44
2021/05/28 01:12:34;;;;;;;;;;;;;;;16.00;100.00;99316.44;3481764;28;19968;-44
2021/05/28 01:14:15;;;;;;;;;;;;;;;15.99;100.00;99317.31;3481063;28;20015;-44
2021/05/28 01:15:56;;;;;;;;;;;;;;;15.97;100.00;99313.84;3482708;28;20418;-44
2021/05/28 01:17:38;;;;;;;;;;;;;;;15.95;100.00;99306.03;3481901;28;19976;-43
2021/05/28 01:19:19;;;;;;;;;;;;;;;15.93;100.00;99312.16;3482906;28;20406;-44
2021/05/28 01:21:00;;;;;;;;;;;;;;;15.93;100.00;99314.75;3482307;28;19975;-44
2021/05/28 01:22:42;;;;;;;;;;;;;;;15.91;100.00;99309.56;3482997;28;20455;-44
2021/05/28 01:24:23;;;;;;;;;;;;;;;15.90;100.00;99310.44;3481746;28;20409;-44
2021/05/28 01:26:05;;;;;;;;;;;;;;;15.90;100.00;99307.84;3482766;28;19944;-44
2021/05/28 01:27:46;;;;;;;;;;;;;;;15.89;100.00;99305.22;3482412;28;20639;-45
2021/05/28 01:29:27;;;;;;;;;;;;;;;15.89;100.00;99300.88;3481989;28;19998;-45
2021/05/28 01:31:09;;;;;;;;;;;;;;;15.89;100.00;99298.25;3482856;28;20459;-44
2021/05/28 01:32:50;;;;;;;;;;;;;;;15.90;100.00;99310.44;3482071;28;20003;-54
2021/05/28 01:34:31;;;;;;;;;;;;;;;15.90;100.00;99304.38;3482975;28;20301;-53
2021/05/28 01:36:13;;;;;;;;;;;;;;;15.91;100.00;99303.47;3481674;28;20306;-53
2021/05/28 01:37:54;;;;;;;;;;;;;;;15.90;100.00;99297.38;3482676;28;19964;-54
2021/05/28 01:39:41;;;;;;;;;;;;;;;15.91;100.00;99304.34;3482389;28;20031;-53
2021/05/28 01:41:26;;;;;;;;;;;;;;;15.90;100.00;99297.38;3480664;28;19975;-55
2021/05/28 01:43:08;;;;;;;;;;;;;;;15.90;100.00;99296.50;3483024;28;20018;-44
2021/05/28 01:44:49;;;;;;;;;;;;;;;15.91;100.00;99298.22;3481757;28;19937;-45
2021/05/28 01:46:30;;;;;;;;;;;;;;;15.90;100.00;99302.59;3482621;28;19929;-44
2021/05/28 01:48:11;;;;;;;;;;;;;;;15.90;100.00;99300.00;3481977;28;19936;-44
2021/05/28 01:49:52;;;;;;;;;;;;;;;15.91;100.00;99306.06;3482444;28;19944;-44
2021/05/28 01:51:33;;;;;;;;;;;;;;;15.91;100.00;99306.06;3482428;28;20025;-45
2021/05/28 01:53:17;;;;;;;;;;;;;;;15.89;100.00;99308.72;3481664;28;20389;-44
2021/05/28 01:54:58;;;;;;;;;;;;;;;15.89;100.00;99303.47;3483018;28;19937;-44
2021/05/28 01:56:40;;;;;;;;;;;;;;;15.90;100.00;99306.97;3481417;28;20459;-45
2021/05/28 01:58:22;;;;;;;;;;;;;;;15.89;100.00;99303.47;3482763;28;19928;-45
2021/05/28 02:00:05;;;;;;;;;;;;;;;15.88;100.00;99301.75;3481583;28;20348;-44
2021/05/28 02:01:46;;;;;;;;;;;;;;;15.89;100.00;99305.22;3482090;28;20033;-45
2021/05/28 02:03:27;;;;;;;;;;;;;;;15.89;100.00;99307.84;3482369;28;19979;-44
2021/05/28 02:05:09;;;;;;;;;;;;;;;15.88;100.00;99308.75;3481735;28;19960;-44
2021/05/28 02:06:50;;;;;;;;;;;;;;;15.87;100.00;99301.78;3482629;28;19929;-44
2021/05/28 02:08:33;;;;;;;;;;;;;;;15.86;100.00;99311.38;3481353;28;19987;-44
2021/05/28 02:10:14;;;;;;;;;;;;;;;15.86;100.00;99310.50;3482955;28;19943;-44
2021/05/28 02:11:57;;;;;;;;;;;;;;;15.85;100.00;99307.03;3481639;28;19972;-44
2021/05/28 02:13:38;;;;;;;;;;;;;;;15.85;100.00;99311.41;3480388;28;19935;-43
2021/05/28 02:15:19;;;;;;;;;;;;;;;15.85;100.00;99314.88;3482267;28;20071;-43
2021/05/28 02:17:00;;;;;;;;;;;;;;;15.86;100.00;99308.78;3481590;28;19929;-44
2021/05/28 02:18:42;;;;;;;;;;;;;;;15.87;100.00;99315.72;3482457;28;19933;-44
2021/05/28 02:20:23;;;;;;;;;;;;;;;15.87;100.00;99313.09;3481498;28;20601;-44
2021/05/28 02:22:10;;;;;;;;;;;;;;;15.89;100.00;99310.47;3482815;28;19929;-44
2021/05/28 02:23:51;;;;;;;;;;;;;;;15.89;100.00;99310.47;3481708;28;19978;-44
2021/05/28 02:25:32;;;;;;;;;;;;;;;15.90;100.00;99310.44;3481687;28;19971;-44
2021/05/28 02:27:13;;;;;;;;;;;;;;;15.91;100.00;99319.16;3482110;28;20461;-49
2021/05/28 02:28:55;;;;;;;;;;;;;;;15.92;100.00;99306.06;3481986;28;19982;-44
2021/05/28 02:30:36;;;;;;;;;;;;;;;15.94;100.00;99306.03;3482298;28;20398;-44
2021/05/28 02:32:17;;;;;;;;;;;;;;;15.95;100.00;99299.94;3481171;28;19932;-44
2021/05/28 02:33:58;;;;;;;;;;;;;;;15.97;100.00;99300.78;3482790;28;19983;-50
2021/05/28 02:35:39;;;;;;;;;;;;;;;15.96;100.00;99292.06;3481211;28;19986;-49
2021/05/28 02:37:21;;;;;;;;;;;;;;;15.97;100.00;99293.78;3481955;28;19956;-44
2021/05/28 02:39:03;;;;;;;;;;;;;;;15.96;100.00;99286.84;3482080;28;20391;-43
2021/05/28 02:40:45;;;;;;;;;;;;;;;15.97;100.00;99285.06;3481238;28;20357;-44
2021/05/28 02:42:26;;;;;;;;;;;;;;;16.00;100.00;99286.75;3482431;28;19972;-44
2021/05/28 02:44:07;;;;;;;;;;;;;;;16.01;100.00;99288.50;3481753;28;19959;-43
2021/05/28 02:45:48;;;;;;;;;;;;;;;16.02;100.00;99285.00;3482462;28;19975;-44
2021/05/28 02:47:30;;;;;;;;;;;;;;;16.03;100.00;99279.75;3481023;28;20389;-44
2021/05/28 02:49:13;;;;;;;;;;;;;;;16.03;100.00;99279.75;3482017;28;19976;-44
2021/05/28 02:50:54;;;;;;;;;;;;;;;16.03;100.00;99276.25;3481411;28;20191;-50
2021/05/28 02:52:35;;;;;;;;;;;;;;;16.03;100.00;99282.34;3482662;28;19972;-49
2021/05/28 02:54:17;;;;;;;;;;;;;;;16.04;100.00;99281.47;3484707;28;19978;-50
2021/05/28 02:55:58;;;;;;;;;;;;;;;16.05;100.00;99275.34;3483488;28;19935;-50
2021/05/28 02:57:40;;;;;;;;;;;;;;;16.07;100.00;99277.94;3484536;28;19940;-50
2021/05/28 02:59:21;;;;;;;;;;;;;;;16.07;100.00;99275.31;3483412;28;19968;-52
2021/05/28 03:01:02;;;;;;;;;;;;;;;16.07;100.00;99280.56;3484107;28;20413;-53
2021/05/28 03:02:44;;;;;;;;;;;;;;;16.09;100.00;99279.66;3483461;28;19928;-52
2021/05/28 03:04:25;;;;;;;;;;;;;;;16.09;100.00;99276.19;3483247;28;20238;-53
2021/05/28 03:06:06;;;;;;;;;;;;;;;16.10;100.00;99280.53;3483271;28;20390;-53
2021/05/28 03:07:47;;;;;;;;;;;;;;;16.08;100.00;99275.31;3483563;28;19988;-51
2021/05/28 03:09:29;;;;;;;;;;;;;;;16.07;100.00;99273.59;3484530;28;19952;-49
2021/05/28 03:11:10;;;;;;;;;;;;;;;16.06;100.00;99274.47;3483115;28;19979;-51
2021/05/28 03:12:52;;;;;;;;;;;;;;;16.07;100.00;99276.22;3483974;28;19975;-50
2021/05/28 03:14:33;;;;;;;;;;;;;;;16.07;100.00;99270.97;3482156;28;19929;-49
2021/05/28 03:16:14;;;;;;;;;;;;;;;16.08;100.00;99279.69;3483586;28;19972;-44
2021/05/28 03:17:57;;;;;;;;;;;;;;;16.08;100.00;99275.31;3484548;28;19964;-44
2021/05/28 03:19:43;;;;;;;;;;;;;;;16.10;100.00;99284.00;3483195;28;19928;-44
2021/05/28 03:21:36;;;;;;;;;;;;;;;16.10;100.00;99272.66;3484294;28;20010;-44
2021/05/28 03:23:19;;;;;;;;;;;;;;;16.12;100.00;99282.25;3483708;28;19972;-44
2021/05/28 03:25:02;;;;;;;;;;;;;;;16.12;100.00;99277.00;3483842;28;19968;-44
2021/05/28 03:26:43;;;;;;;;;;;;;;;16.13;100.00;99281.34;3484095;28;19928;-51
2021/05/28 03:28:24;;;;;;;;;;;;;;;16.13;100.00;99278.72;3483178;28;19983;-43
2021/05/28 03:30:06;;;;;;;;;;;;;;;16.15;100.00;99279.56;3484492;28;19975;-44
2021/05/28 03:31:47;;;;;;;;;;;;;;;16.14;100.00;99280.47;3483365;28;20245;-44
2021/05/28 03:33:29;;;;;;;;;;;;;;;16.15;100.00;99282.16;3483859;28;20007;-44
2021/05/28 03:35:10;;;;;;;;;;;;;;;16.16;100.00;99283.91;3483388;28;19967;-44
2021/05/28 03:36:51;;;;;;;;;;;;;;;16.17;100.00;99284.78;3483770;28;19960;-44
2021/05/28 03:38:33;;;;;;;;;;;;;;;16.17;100.00;99280.38;3484078;28;19976;-44
2021/05/28 03:40:15;;;;;;;;;;;;;;;16.19;100.00;99285.59;3482956;28;19994;-44
2021/05/28 03:41:56;;;;;;;;;;;;;;;16.21;100.00;99283.81;3484371;28;19929;-44
2021/05/28 03:43:37;;;;;;;;;;;;;;;16.22;100.00;99282.94;3482961;28;20506;-43
2021/05/28 03:45:18;;;;;;;;;;;;;;;16.22;100.00;99277.72;3483988;28;19929;-44
2021/05/28 03:47:00;;;;;;;;;;;;;;;16.23;100.00;99284.69;3483276;28;20024;-44
2021/05/28 03:48:41;;;;;;;;;;;;;;;16.24;100.00;99285.53;3483087;28;20389;-45
2021/05/28 03:50:22;;;;;;;;;;;;;;;16.25;100.00;99287.28;3483942;28;20013;-44
2021/05/28 03:52:03;;;;;;;;;;;;;;;16.26;100.00;99289.00;3482880;28;20394;-45
2021/05/28 03:53:45;;;;;;;;;;;;;;;16.26;100.00;99287.22;3484100;28;19967;-44
2021/05/28 03:55:27;;;;;;;;;;;;;;;16.28;100.00;99289.84;3482798;28;20237;-44
2021/05/28 03:57:08;;;;;;;;;;;;;;;16.29;100.00;99284.56;3483945;28;19982;-44
2021/05/28 03:58:49;;;;;;;;;;;;;;;16.30;100.00;99288.06;3483801;28;19988;-44
2021/05/28 04:00:31;;;;;;;;;;;;;;;16.31;100.00;99290.66;3483028;28;20420;-44
2021/05/28 04:02:12;;;;;;;;;;;;;;;16.33;100.00;99296.72;3482601;28;19982;-44
2021/05/28 04:03:53;;;;;;;;;;;;;;;16.36;100.00;99295.81;3482225;28;19932;-49
2021/05/28 04:05:34;;;;;;;;;;;;;;;16.38;100.00;99306.28;3470460;28;19936;-50
2021/05/28 04:07:15;;;;;;;;;;;;;;;16.38;100.00;99304.50;3478921;28;19968;-50
2021/05/28 04:08:56;;;;;;;;;;;;;;;16.41;100.00;99301.00;3484161;28;20408;-44
2021/05/28 04:10:38;;;;;;;;;;;;;;;16.42;100.00;99298.31;3482822;28;19972;-44
2021/05/28 04:12:19;;;;;;;;;;;;;;;16.45;100.00;99294.81;3483188;28;19976;-44
2021/05/28 04:14:00;;;;;;;;;;;;;;;16.47;100.00;99293.88;3482099;28;19936;-44
2021/05/28 04:15:42;;;;;;;;;;;;;;;16.49;100.00;99291.25;3482662;28;19933;-44
2021/05/28 04:17:23;;;;;;;;;;;;;;;16.52;100.00;99301.66;3483776;28;19928;-44
2021/05/28 04:19:04;;;;;;;;;;;;;;;16.53;100.00;99301.66;3482841;28;20014;-44
2021/05/28 04:20:45;;;;;;;;;;;;;;;16.54;100.00;99305.97;3483905;28;19975;-44
2021/05/28 04:22:26;;;;;;;;;;;;;;;16.55;100.00;99302.50;3482580;28;19929;-44
2021/05/28 04:24:08;;;;;;;;;;;;;;;16.56;100.00;99300.72;3483072;28;20424;-44
2021/05/28 04:25:50;;;;;;;;;;;;;;;16.57;100.00;99305.09;3483459;28;19929;-44
2021/05/28 04:27:31;;;;;;;;;;;;;;;16.60;100.00;99304.16;3482625;28;19929;-44
2021/05/28 04:29:12;;;;;;;;;;;;;;;16.60;100.00;99294.56;3483451;28;19991;-44
2021/05/28 04:30:53;;;;;;;;;;;;;;;16.63;100.00;99296.25;3482639;28;19971;-44
2021/05/28 04:32:34;;;;;;;;;;;;;;;16.64;100.00;99293.63;3483852;28;20028;-43
2021/05/28 04:34:16;;;;;;;;;;;;;;;16.67;100.00;99301.44;3482392;28;19935;-45
2021/05/28 04:35:57;;;;;;;;;;;;;;;16.69;100.00;99294.41;3483154;28;20350;-44
2021/05/28 04:37:38;;;;;;;;;;;;;;;16.72;100.00;99296.97;3482838;28;20458;-43
2021/05/28 04:39:20;;;;;;;;;;;;;;;16.75;100.00;99298.69;3482739;28;19936;-44
2021/05/28 04:41:02;;;;;;;;;;;;;;;16.77;100.00;99293.44;3483428;28;19951;-44
2021/05/28 04:42:43;;;;;;;;;;;;;;;16.78;100.00;99295.16;3482268;28;19990;-43
2021/05/28 04:44:24;;;;;;;;;;;;;;;16.80;100.00;99293.38;3483622;28;20023;-44
2021/05/28 04:46:05;;;;;;;;;;;;;;;16.83;100.00;99294.19;3482267;28;19935;-43
2021/05/28 04:47:46;;;;;;;;;;;;;;;16.85;100.00;99292.41;3482842;28;19971;-44
2021/05/28 04:49:27;;;;;;;;;;;;;;;16.89;100.00;99295.84;3483111;28;20016;-43
2021/05/28 04:51:08;;;;;;;;;;;;;;;16.91;100.00;99297.53;3482370;28;20436;-43
2021/05/28 04:52:50;;;;;;;;;;;;;;;16.96;100.00;99293.97;3483761;28;19972;-49
2021/05/28 04:54:32;;;;;;;;;;;;;;;16.99;100.00;99292.16;3482039;28;20393;-48
2021/05/28 04:56:14;;;;;;;;;;;;;;;17.05;100.00;99292.03;3482988;28;19963;-49
2021/05/28 04:57:55;;;;;;;;;;;;;;;17.09;100.00;99282.34;3482421;28;19991;-49
2021/05/28 04:59:36;;;;;;;;;;;;;;;17.14;100.00;99288.38;3483144;28;19929;-49
2021/05/28 05:01:17;;;;;;;;;;;;;;;17.16;100.00;99281.34;3482784;28;20305;-49
2021/05/28 05:02:59;;;;;;;;;;;;;;;17.21;100.00;99291.75;3482481;28;20382;-49
2021/05/28 05:04:40;;;;;;;;;;;;;;;17.24;100.00;99286.44;3483240;28;19955;-48
2021/05/28 05:06:21;;;;;;;;;;;;;;;17.29;100.00;99284.59;3482182;28;19933;-48
2021/05/28 05:08:02;;;;;;;;;;;;;;;17.34;100.00;99281.88;3483369;28;19928;-48
2021/05/28 05:09:43;;;;;;;;;;;;;;;17.38;100.00;99283.56;3482038;28;19929;-47
2021/05/28 05:11:25;;;;;;;;;;;;;;;17.41;100.00;99286.97;3482816;28;19933;-49
2021/05/28 05:13:10;;;;;;;;;;;;;;;17.43;100.00;99293.06;3481112;28;19929;-49
2021/05/28 05:14:51;;;;;;;;;;;;;;;17.47;100.00;99297.31;3482017;28;19975;-47
2021/05/28 05:16:34;;;;;;;;;;;;;;;17.49;100.00;99294.69;3482851;28;20393;-48
2021/05/28 05:18:25;;;;;;;;;;;;;;;17.49;100.00;99299.91;3481953;28;20359;-49
2021/05/28 05:20:07;;;;;;;;;;;;;;;17.44;99.83;99301.78;3483353;28;19968;-47
2021/05/28 05:21:49;;;;;;;;;;;;;;;17.40;99.23;99305.34;3482104;28;19928;-48
2021/05/28 05:23:31;;;;;;;;;;;;;;;17.37;99.42;99302.78;3482403;28;19955;-50
2021/05/28 05:25:12;;;;;;;;;;;;;;;17.37;99.80;99303.66;3482697;28;19932;-48
2021/05/28 05:26:54;;;;;;;;;;;;;;;17.34;99.17;99301.09;3481957;28;20536;-51
2021/05/28 05:28:35;;;;;;;;;;;;;;;17.35;99.07;99302.81;3483229;28;19974;-47
2021/05/28 05:30:17;;;;;;;;;;;;;;;17.37;98.92;99301.03;3481786;28;19982;-50
2021/05/28 05:31:58;;;;;;;;;;;;;;;17.41;98.53;99304.44;3482519;28;19971;-46
2021/05/28 05:33:39;;;;;;;;;;;;;;;17.43;98.15;99303.53;3482547;28;20023;-45
2021/05/28 05:35:21;;;;;;;;;;;;;;;17.46;97.64;99313.09;3481947;28;19968;-52
2021/05/28 05:37:02;;;;;;;;;;;;;;;17.50;97.85;99304.28;3482836;28;19936;-48
2021/05/28 05:38:44;;;;;;;;;;;;;;;17.54;97.62;99310.34;3482017;28;19984;-43
2021/05/28 05:40:25;;;;;;;;;;;;;;;17.60;98.12;99307.56;3483212;28;19968;-44
2021/05/28 05:42:07;;;;;;;;;;;;;;;17.64;97.59;99309.22;3481890;28;19935;-44
2021/05/28 05:43:48;;;;;;;;;;;;;;;17.64;96.86;99303.97;3482614;28;19968;-44
2021/05/28 05:45:29;;;;;;;;;;;;;;;17.68;96.31;99313.53;3482005;28;20409;-44
2021/05/28 05:47:11;;;;;;;;;;;;;;;17.68;96.32;99303.88;3482187;28;19976;-44
2021/05/28 05:48:52;;;;;;;;;;;;;;;17.70;95.90;99300.38;3481928;28;19968;-43
2021/05/28 05:50:33;;;;;;;;;;;;;;;17.71;95.07;99300.31;3481652;28;19979;-45
2021/05/28 05:52:14;;;;;;;;;;;;;;;17.69;93.79;99294.25;3482685;28;20402;-44
2021/05/28 05:53:55;;;;;;;;;;;;;;;17.71;93.56;99297.69;3481769;28;19928;-49
2021/05/28 05:55:36;;;;;;;;;;;;;;;17.75;94.08;99294.13;3482465;28;20064;-48
2021/05/28 05:57:18;;;;;;;;;;;;;;;17.81;94.65;99295.75;3481886;28;19979;-47
2021/05/28 05:58:59;;;;;;;;;;;;;;;17.86;95.04;99296.56;3481924;28;19967;-45
2021/05/28 06:00:41;;;;;;;;;;;;;;;17.91;95.18;99299.94;3482666;28;19955;-44
2021/05/28 06:02:22;;;;;;;;;;;;;;;17.95;94.59;99296.34;3481607;28;19933;-47
2021/05/28 06:04:03;;;;;;;;;;;;;;;18.00;94.72;99301.50;3482855;28;19936;-48
2021/05/28 06:05:45;;;;;;;;;;;;;;;18.03;94.37;99298.81;3481651;28;19967;-47
2021/05/28 06:07:26;;;;;;;;;;;;;;;18.09;95.06;99297.81;3482008;28;20313;-47
2021/05/28 06:09:07;;;;;;;;;;;;;;;18.12;94.06;99295.97;3481870;28;19929;-47
2021/05/28 06:10:48;;;;;;;;;;;;;;;18.14;92.24;99302.03;3481729;28;19929;-48
2021/05/28 06:12:30;;;;;;;;;;;;;;;18.17;90.74;99306.34;3482560;28;19929;-44
2021/05/28 06:14:11;;;;;;;;;;;;;;;18.19;91.01;99297.53;3480083;28;19928;-45
2021/05/28 06:15:53;;;;;;;;;;;;;;;18.23;90.44;99295.72;3482953;28;20098;-44
2021/05/28 06:17:34;;;;;;;;;;;;;;;18.28;90.45;99291.22;3481215;28;19936;-44
2021/05/28 06:19:15;;;;;;;;;;;;;;;18.34;90.62;99295.44;3482473;28;19991;-45
2021/05/28 06:20:57;;;;;;;;;;;;;;;18.41;90.15;99294.41;3480532;28;19935;-44
2021/05/28 06:22:39;;;;;;;;;;;;;;;18.46;88.31;99302.19;3481912;28;20033;-44
2021/05/28 06:24:21;;;;;;;;;;;;;;;18.52;88.27;99299.38;3481379;28;19939;-44
2021/05/28 06:26:02;;;;;;;;;;;;;;;18.58;88.66;99302.72;3481325;28;19978;-45
2021/05/28 06:27:47;;;;;;;;;;;;;;;18.67;88.17;99298.16;3484527;28;19929;-45
2021/05/28 06:29:28;;;;;;;;;;;;;;;18.77;90.33;99299.63;3484208;28;20008;-44
2021/05/28 06:31:09;;;;;;;;;;;;;;;18.83;89.20;99299.47;3484434;28;19971;-45
2021/05/28 06:32:50;;;;;;;;;;;;;;;18.88;87.34;99297.63;3484268;28;20010;-44
2021/05/28 06:34:31;;;;;;;;;;;;;;;18.94;86.39;99286.94;3484141;28;20386;-44
2021/05/28 06:36:13;;;;;;;;;;;;;;;18.99;85.29;99287.69;3483598;28;19979;-44
2021/05/28 06:37:54;;;;;;;;;;;;;;;19.08;85.72;99290.97;3483909;28;20433;-44
2021/05/28 06:39:35;;;;;;;;;;;;;;;19.16;85.83;99295.13;3471291;28;19929;-44
2021/05/28 06:41:16;;;;;;;;;;;;;;;19.25;86.02;99290.50;3479909;28;19951;-44
2021/05/28 06:42:58;;;;;;;;;;;;;;;19.34;85.51;99285.84;3485132;28;19929;-43
2021/05/28 06:44:39;;;;;;;;;;;;;;;19.45;85.63;99289.94;3483515;28;20315;-44
2021/05/28 06:46:20;;;;;;;;;;;;;;;19.54;84.59;99284.41;3483996;28;20007;-44
2021/05/28 06:48:02;;;;;;;;;;;;;;;19.61;83.36;99287.72;3484494;28;19952;-45
2021/05/28 06:49:43;;;;;;;;;;;;;;;19.65;82.85;99290.22;3483514;28;20398;-44
2021/05/28 06:51:25;;;;;;;;;;;;;;;19.73;83.29;99293.50;3484482;28;19929;-44
2021/05/28 06:53:06;;;;;;;;;;;;;;;19.81;83.18;99289.75;3483716;28;19936;-45
2021/05/28 06:54:48;;;;;;;;;;;;;;;19.87;82.75;99290.47;3485016;28;19964;-44
2021/05/28 06:56:31;;;;;;;;;;;;;;;19.92;81.24;99290.34;3483539;28;20022;-44
2021/05/28 06:58:14;;;;;;;;;;;;;;;20.02;81.70;99288.28;3484071;28;19964;-47
2021/05/28 06:59:55;;;;;;;;;;;;;;;20.12;81.58;99293.22;3484400;28;19972;-47
2021/05/28 07:01:36;;;;;;;;;;;;;;;20.20;80.89;99287.72;3483287;28;20438;-47
2021/05/28 07:03:17;;;;;;;;;;;;;;;20.31;80.06;99290.84;3484669;28;19971;-47
2021/05/28 07:04:58;;;;;;;;;;;;;;;20.37;78.79;99289.78;3483670;28;19975;-47
2021/05/28 07:06:39;;;;;;;;;;;;;;;20.46;79.24;99286.00;3484450;28;20444;-47
2021/05/28 07:08:20;;;;;;;;;;;;;;;20.51;78.24;99281.44;3483364;28;19987;-47
2021/05/28 07:10:02;;;;;;;;;;;;;;;20.58;77.47;99290.84;3483906;28;20031;-47
2021/05/28 07:11:43;;;;;;;;;;;;;;;20.63;79.72;99286.28;3484233;28;20445;-47
2021/05/28 07:13:25;;;;;;;;;;;;;;;20.67;78.60;99284.41;3481931;28;20393;-47
2021/05/28 07:15:07;;;;;;;;;;;;;;;20.74;78.98;99285.97;3484875;28;19983;-47
2021/05/28 07:16:48;;;;;;;;;;;;;;;20.81;77.62;99282.19;3483260;28;20472;-45
2021/05/28 07:18:30;;;;;;;;;;;;;;;20.87;75.43;99282.00;3484654;28;19936;-47
2021/05/28 07:20:11;;;;;;;;;;;;;;;20.96;74.72;99283.47;3483402;28;19972;-48
2021/05/28 07:21:52;;;;;;;;;;;;;;;21.04;73.04;99286.66;3483934;28;19976;-47
2021/05/28 07:23:33;;;;;;;;;;;;;;;21.11;73.25;99286.47;3483938;28;20402;-49
2021/05/28 07:25:15;;;;;;;;;;;;;;;21.20;73.15;99286.13;3483447;28;19935;-46
2021/05/28 07:26:56;;;;;;;;;;;;;;;21.36;74.05;99282.00;3484554;28;19979;-46
2021/05/28 07:28:38;;;;;;;;;;;;;;;21.51;70.95;99279.75;3483065;28;19944;-47
2021/05/28 07:30:19;;;;;;;;;;;;;;;21.69;72.97;99281.69;3484378;28;20416;-46
2021/05/28 07:32:01;;;;;;;;;;;;;;;21.93;71.70;99276.38;3483147;28;20003;-45
2021/05/28 07:33:42;;;;;;;;;;;;;;;22.07;71.39;99274.06;3483765;28;19964;-45
2021/05/28 07:35:23;;;;;;;;;;;;;;;22.07;68.85;99268.78;3483726;28;20273;-45
2021/05/28 07:37:05;;;;;;;;;;;;;;;21.95;68.19;99271.91;3483258;28;20411;-45
2021/05/28 07:38:46;;;;;;;;;;;;;;;21.87;70.01;99274.00;3483838;28;20051;-44
2021/05/28 07:40:27;;;;;;;;;;;;;;;21.87;70.77;99268.72;3483269;28;19928;-47
2021/05/28 07:42:08;;;;;;;;;;;;;;;21.86;71.90;99265.22;3484357;28;20020;-47
2021/05/28 07:43:50;;;;;;;;;;;;;;;21.86;70.39;99264.34;3483073;28;20037;-47
2021/05/28 07:45:31;;;;;;;;;;;;;;;21.89;71.97;99267.72;3483143;28;20471;-46
2021/05/28 07:47:13;;;;;;;;;;;;;;;21.93;72.00;99264.06;3483620;28;20022;-46
2021/05/28 07:48:54;;;;;;;;;;;;;;;21.95;71.80;99269.28;3483364;28;20418;-46
2021/05/28 07:52:31;;;;;;;;;;;;;;;21.91;72.55;99271.19;3480856;28;19976;-46
2021/05/28 07:54:12;;;;;;;;;;;;;;;21.89;72.83;99267.72;3483628;28;19935;-45
2021/05/28 07:55:54;;;;;;;;;;;;;;;21.87;68.78;99264.28;3483634;28;19935;-45
2021/05/28 07:57:35;;;;;;;;;;;;;;;21.81;69.41;99273.31;3483322;28;19964;-47
2021/05/28 07:59:17;;;;;;;;;;;;;;;21.86;70.82;99272.25;3483739;28;19929;-46
2021/05/28 08:00:58;;;;;;;;;;;;;;;21.97;70.72;99265.66;3483013;28;19987;-46
2021/05/28 08:02:46;;;;;;;;;;;;;;;22.05;70.05;99261.84;3484266;28;19979;-48
2021/05/28 08:04:27;;;;;;;;;;;;;;;22.15;71.07;99265.84;3483236;28;19935;-46
2021/05/28 08:06:09;;;;;;;;;;;;;;;22.23;70.05;99260.22;3484016;28;19932;-49
2021/05/28 08:07:50;;;;;;;;;;;;;;;22.24;69.25;99254.03;3483170;28;19991;-48
2021/05/28 08:09:31;;;;;;;;;;;;;;;22.18;68.97;99257.78;3482998;28;19929;-47
2021/05/28 08:11:12;;;;;;;;;;;;;;;22.17;70.49;99256.06;3483616;28;19960;-48
2021/05/28 08:12:53;;;;;;;;;;;;;;;22.16;71.02;99255.22;3482930;28;20019;-46
2021/05/28 08:14:35;;;;;;;;;;;;;;;22.19;70.33;99252.44;3482820;28;19936;-47
2021/05/28 08:16:16;;;;;;;;;;;;;;;22.27;69.92;99251.28;3482477;28;20427;-47
2021/05/28 08:17:58;;;;;;;;;;;;;;;22.40;71.62;99247.19;3483692;28;19964;-46
2021/05/28 08:19:39;;;;;;;;;;;;;;;22.56;72.08;99252.72;3483368;28;19929;-46
2021/05/28 08:21:20;;;;;;;;;;;;;;;22.69;71.54;99247.75;3482823;28;20012;-46
2021/05/28 08:23:01;;;;;;;;;;;;;;;22.80;69.80;99247.31;3482721;28;19937;-47
2021/05/28 08:24:42;;;;;;;;;;;;;;;22.91;70.45;99251.19;3482655;28;19928;-47
2021/05/28 08:26:24;;;;;;;;;;;;;;;23.03;68.97;99247.16;3483833;28;19929;-47
2021/05/28 08:28:05;;;;;;;;;;;;;;;23.12;67.63;99246.75;3482752;28;20105;-46
2021/05/28 08:29:46;;;;;;;;;;;;;;;23.07;63.71;99248.75;3483914;28;19935;-46
2021/05/28 08:31:28;;;;;;;;;;;;;;;23.06;66.90;99249.69;3482878;28;20431;-46
2021/05/28 08:33:11;;;;;;;;;;;;;;;23.04;67.51;99243.59;3483088;28;19967;-45
2021/05/28 08:34:52;;;;;;;;;;;;;;;23.01;67.59;99241.09;3483688;28;19929;-46
2021/05/28 08:36:34;;;;;;;;;;;;;;;23.06;68.69;99241.75;3482194;28;19933;-47
2021/05/28 08:38:15;;;;;;;;;;;;;;;23.09;66.84;99240.72;3483603;28;19928;-46
2021/05/28 08:39:57;;;;;;;;;;;;;;;23.09;64.60;99238.09;3482721;28;19928;-46
2021/05/28 08:41:41;;;;;;;;;;;;;;;23.09;65.68;99240.72;3483290;28;19984;-46
2021/05/28 08:43:23;;;;;;;;;;;;;;;23.06;65.72;99236.44;3481725;28;20314;-46
2021/05/28 08:45:06;;;;;;;;;;;;;;;23.08;64.80;99239.88;3482754;28;19929;-47
2021/05/28 08:46:47;;;;;;;;;;;;;;;23.12;64.23;99230.88;3482649;28;19983;-46